createdAt,value
2024-02-07T00:05:02.920Z,100.00
2024-02-07T00:10:06.644Z,100.00
2024-02-07T00:15:10.272Z,100.00
2024-02-07T00:20:13.256Z,100.00
2024-02-07T00:25:16.514Z,100.00
2024-02-07T00:30:24.770Z,100.00
2024-02-07T00:35:34.310Z,100.00
2024-02-07T00:40:37.572Z,100.00
2024-02-07T00:45:40.645Z,100.00
2024-02-07T00:50:43.866Z,100.00
2024-02-07T00:55:47.128Z,100.00
2024-02-07T01:00:50.179Z,100.00
2024-02-07T01:05:53.211Z,99.58
2024-02-07T01:10:56.109Z,99.88
2024-02-07T01:15:58.964Z,99.71
2024-02-07T01:21:01.969Z,99.02
2024-02-07T01:26:04.921Z,99.28
2024-02-07T01:31:09.258Z,99.89
2024-02-07T01:36:12.117Z,100.00
2024-02-07T01:41:14.949Z,100.00
2024-02-07T01:46:17.971Z,100.00
2024-02-07T01:51:21.102Z,100.00
2024-02-07T01:56:25.328Z,99.89
2024-02-07T02:01:28.876Z,99.21
2024-02-07T02:06:31.864Z,99.02
2024-02-07T02:11:39.118Z,99.18
2024-02-07T02:16:42.278Z,99.39
2024-02-07T02:22:24.722Z,99.76
2024-02-07T02:27:55.835Z,99.95
2024-02-07T02:33:02.250Z,100.00
2024-02-07T02:38:06.273Z,100.00
2024-02-07T02:43:11.555Z,100.00
2024-02-07T02:48:15.331Z,100.00
2024-02-07T02:53:18.422Z,100.00
2024-02-07T02:58:28.602Z,100.00
2024-02-07T03:03:39.950Z,100.00
2024-02-07T03:08:55.124Z,100.00
2024-02-07T03:13:58.122Z,100.00
2024-02-07T03:19:01.010Z,100.00
2024-02-07T03:24:04.539Z,100.00
2024-02-07T03:29:07.423Z,100.00
2024-02-07T03:34:11.139Z,100.00
2024-02-07T03:39:14.875Z,100.00
2024-02-07T03:44:17.683Z,100.00
2024-02-07T03:49:22.048Z,100.00
2024-02-07T03:54:25.109Z,100.00
2024-02-07T03:59:27.838Z,100.00
2024-02-07T04:04:30.682Z,100.00
2024-02-07T04:09:34.179Z,100.00
2024-02-07T04:14:37.016Z,100.00
2024-02-07T04:19:58.582Z,100.00
2024-02-07T04:25:20.474Z,100.00
2024-02-07T04:30:42.136Z,100.00
2024-02-07T04:36:03.703Z,100.00
2024-02-07T04:41:24.969Z,100.00
2024-02-07T04:46:46.260Z,100.00
2024-02-07T04:52:08.022Z,100.00
2024-02-07T04:57:29.364Z,100.00
2024-02-07T05:02:50.728Z,100.00
2024-02-07T05:08:12.439Z,100.00
2024-02-07T05:13:33.821Z,100.00
2024-02-07T05:18:36.703Z,100.00
2024-02-07T05:23:42.966Z,100.00
2024-02-07T05:28:46.386Z,100.00
2024-02-07T05:33:49.637Z,100.00
2024-02-07T05:38:55.158Z,100.00
2024-02-07T05:43:58.018Z,100.00
2024-02-07T05:49:01.031Z,100.00
2024-02-07T05:54:03.977Z,100.00
2024-02-07T05:59:06.841Z,100.00
2024-02-07T06:04:09.788Z,100.00
2024-02-07T06:09:19.255Z,100.00
2024-02-07T06:14:22.292Z,100.00
2024-02-07T06:19:25.396Z,100.00
2024-02-07T06:24:28.244Z,100.00
2024-02-07T06:29:31.400Z,100.00
2024-02-07T06:34:35.525Z,100.00
2024-02-07T06:39:38.443Z,100.00
2024-02-07T06:44:41.294Z,100.00
2024-02-07T06:49:44.255Z,100.00
2024-02-07T06:54:47.445Z,100.00
2024-02-07T06:59:50.585Z,100.00
2024-02-07T07:04:53.593Z,100.00
2024-02-07T07:09:56.783Z,100.00
2024-02-07T07:14:59.749Z,100.00
2024-02-07T07:20:02.983Z,100.00
2024-02-07T07:25:06.846Z,100.00
2024-02-07T07:30:09.858Z,100.00
2024-02-07T07:35:12.892Z,100.00
2024-02-07T07:40:16.382Z,100.00
2024-02-07T07:45:19.862Z,99.50
2024-02-07T07:50:25.272Z,99.91
2024-02-07T07:55:29.896Z,99.31
2024-02-07T08:00:37.800Z,99.02
2024-02-07T08:05:43.338Z,99.20
2024-02-07T08:10:51.812Z,98.96
2024-02-07T08:15:55.929Z,98.24
2024-02-07T08:20:59.815Z,98.48
2024-02-07T08:26:02.865Z,97.84
2024-02-07T08:31:06.057Z,97.43
2024-02-07T08:36:09.591Z,96.84
2024-02-07T08:41:12.653Z,95.89
2024-02-07T08:51:18.662Z,94.17
2024-02-07T08:56:21.582Z,94.27
2024-02-07T09:01:24.736Z,92.79
2024-02-07T09:06:27.960Z,92.66
2024-02-07T09:11:31.205Z,91.72
2024-02-07T09:16:34.293Z,90.80
2024-02-07T09:21:37.192Z,90.36
2024-02-07T09:26:40.061Z,89.69
2024-02-07T09:31:43.546Z,88.34
2024-02-07T09:36:46.623Z,88.20
2024-02-07T09:41:50.821Z,89.07
2024-02-07T09:46:55.590Z,89.31
2024-02-07T09:51:58.845Z,90.34
2024-02-07T09:57:02.885Z,89.91
2024-02-07T10:02:15.296Z,89.82
2024-02-07T10:07:20.826Z,90.54
2024-02-07T10:12:24.074Z,90.32
2024-02-07T10:17:27.205Z,89.85
2024-02-07T10:22:30.813Z,89.67
2024-02-07T10:27:34.135Z,89.43
2024-02-07T10:32:37.701Z,89.52
2024-02-07T10:37:42.123Z,89.72
2024-02-07T10:42:48.263Z,89.38
2024-02-07T10:47:54.406Z,88.75
2024-02-07T10:52:57.569Z,89.87
2024-02-07T10:58:03.392Z,90.77
2024-02-07T11:03:06.576Z,88.22
2024-02-07T11:08:11.092Z,88.65
2024-02-07T11:13:14.109Z,90.76
2024-02-07T11:18:17.633Z,92.38
2024-02-07T11:23:36.562Z,93.80
2024-02-07T11:28:39.574Z,94.70
2024-02-07T11:33:44.759Z,95.04
2024-02-07T11:38:59.889Z,94.25
2024-02-07T11:44:08.057Z,93.50
2024-02-07T11:49:20.203Z,93.28
2024-02-07T11:54:23.325Z,92.19
2024-02-07T11:59:28.313Z,91.81
2024-02-07T12:04:40.471Z,92.28
2024-02-07T12:09:43.536Z,91.27
2024-02-07T12:14:49.049Z,91.65
2024-02-07T12:19:53.220Z,91.02
2024-02-07T12:24:56.285Z,90.16
2024-02-07T12:29:59.790Z,90.22
2024-02-07T12:35:02.865Z,89.92
2024-02-07T12:40:15.432Z,89.64
2024-02-07T12:45:18.539Z,88.79
2024-02-07T12:50:22.343Z,88.99
2024-02-07T12:55:26.377Z,88.37
2024-02-07T13:00:31.037Z,87.93
2024-02-07T13:05:34.214Z,88.14
2024-02-07T13:10:41.929Z,86.95
2024-02-07T13:15:45.061Z,86.99
2024-02-07T13:20:48.227Z,87.08
2024-02-07T13:25:55.630Z,87.15
2024-02-07T13:31:04.315Z,86.51
2024-02-07T13:36:07.720Z,86.63
2024-02-07T13:41:20.614Z,86.64
2024-02-07T13:46:23.681Z,86.81
2024-02-07T13:51:27.069Z,86.87
2024-02-07T13:56:30.121Z,87.20
2024-02-07T14:01:33.247Z,86.85
2024-02-07T14:06:36.316Z,88.20
2024-02-07T14:11:42.438Z,89.84
2024-02-07T14:16:45.877Z,90.90
2024-02-07T14:21:48.733Z,90.43
2024-02-07T14:26:51.572Z,91.15
2024-02-07T14:31:54.549Z,90.97
2024-02-07T14:36:57.676Z,92.02
2024-02-07T14:42:00.796Z,92.98
2024-02-07T14:47:04.209Z,93.39
2024-02-07T14:52:10.730Z,94.22
2024-02-07T14:57:14.594Z,94.91
2024-02-07T15:02:17.583Z,94.90
2024-02-07T15:07:20.681Z,94.91
2024-02-07T15:12:23.707Z,95.37
2024-02-07T15:17:26.578Z,95.22
2024-02-07T15:22:31.519Z,95.42
2024-02-07T15:27:34.527Z,95.62
2024-02-07T15:32:39.057Z,95.81
2024-02-07T15:37:42.589Z,95.91
2024-02-07T15:42:45.604Z,95.99
2024-02-07T15:47:48.645Z,95.80
2024-02-07T15:52:51.663Z,95.81
2024-02-07T15:57:55.159Z,96.38
2024-02-07T16:02:58.299Z,96.03
2024-02-07T16:08:07.550Z,96.24
2024-02-07T16:13:10.987Z,96.16
2024-02-07T16:18:14.617Z,95.82
2024-02-07T16:23:17.550Z,95.78
2024-02-07T16:28:21.013Z,95.23
2024-02-07T16:33:23.982Z,93.71
2024-02-07T16:38:27.953Z,93.57
2024-02-07T16:43:30.884Z,92.72
2024-02-07T16:48:33.869Z,92.67
2024-02-07T16:53:39.164Z,92.61
2024-02-07T16:58:43.447Z,92.41
2024-02-07T17:03:46.779Z,92.63
2024-02-07T17:08:50.142Z,91.70
2024-02-07T17:13:53.506Z,91.95
2024-02-07T17:18:56.392Z,91.71
2024-02-07T17:24:00.437Z,91.67
2024-02-07T17:29:03.444Z,91.37
2024-02-07T17:34:06.473Z,91.33
2024-02-07T17:39:09.538Z,91.05
2024-02-07T17:44:12.456Z,90.57
2024-02-07T17:49:15.535Z,89.95
2024-02-07T17:54:18.624Z,89.96
2024-02-07T17:59:21.564Z,90.58
2024-02-07T18:04:24.664Z,90.59
2024-02-07T18:09:27.812Z,88.41
2024-02-07T18:14:30.674Z,88.44
2024-02-07T18:19:33.739Z,87.49
2024-02-07T18:24:36.842Z,87.36
2024-02-07T18:29:39.763Z,87.63
2024-02-07T18:34:43.143Z,88.45
2024-02-07T18:39:47.214Z,88.51
2024-02-07T18:44:50.124Z,87.90
2024-02-07T18:49:53.055Z,87.70
2024-02-07T18:54:55.934Z,87.05
2024-02-07T18:59:58.825Z,86.65
2024-02-07T19:05:01.926Z,86.94
2024-02-07T19:10:05.439Z,86.18
2024-02-07T19:15:08.592Z,84.74
2024-02-07T19:20:12.063Z,83.85
2024-02-07T19:25:15.161Z,83.78
2024-02-07T19:30:18.195Z,84.35
2024-02-07T19:35:21.091Z,85.28
2024-02-07T19:40:24.112Z,85.00
2024-02-07T19:45:26.979Z,85.21
2024-02-07T19:50:29.911Z,85.71
2024-02-07T19:55:32.854Z,85.91
2024-02-07T20:00:35.970Z,87.05
2024-02-07T20:05:40.643Z,87.71
2024-02-07T20:10:43.808Z,88.49
2024-02-07T20:15:46.668Z,89.19
2024-02-07T20:20:49.569Z,89.48
2024-02-07T20:26:04.213Z,89.98
2024-02-07T20:31:10.845Z,89.85
2024-02-07T20:36:13.694Z,90.08
2024-02-07T20:41:16.544Z,90.03
2024-02-07T20:46:19.506Z,90.15
2024-02-07T20:51:22.473Z,89.88
2024-02-07T20:56:27.266Z,89.56
2024-02-07T21:01:31.042Z,89.18
2024-02-07T21:06:34.232Z,88.73
2024-02-07T21:11:37.152Z,87.91
2024-02-07T21:16:39.998Z,88.42
2024-02-07T21:21:42.917Z,88.12
2024-02-07T21:26:45.762Z,87.89
2024-02-07T21:31:50.470Z,87.73
2024-02-07T21:36:53.305Z,87.95
2024-02-07T21:41:56.231Z,88.26
2024-02-07T21:46:59.532Z,87.96
2024-02-07T21:52:02.506Z,88.30
2024-02-07T21:57:05.472Z,88.48
2024-02-07T22:02:08.442Z,88.63
2024-02-07T22:07:12.658Z,88.41
2024-02-07T22:12:17.841Z,88.28
2024-02-07T22:17:20.824Z,88.12
2024-02-07T22:22:24.375Z,87.91
2024-02-07T22:27:27.163Z,87.89
2024-02-07T22:32:30.141Z,87.38
2024-02-07T22:37:36.068Z,87.49
2024-02-07T22:42:38.929Z,87.10
2024-02-07T22:47:41.763Z,86.75
2024-02-07T22:52:44.676Z,86.18
2024-02-07T22:57:49.301Z,86.27
2024-02-07T23:02:56.220Z,86.81
2024-02-07T23:07:59.322Z,86.58
2024-02-07T23:13:02.173Z,87.00
2024-02-07T23:18:05.444Z,86.52
2024-02-07T23:23:08.568Z,87.17
2024-02-07T23:28:11.544Z,86.73
2024-02-07T23:33:17.826Z,86.81
2024-02-07T23:38:20.734Z,87.05
2024-02-07T23:43:24.732Z,87.10
2024-02-07T23:48:27.657Z,87.17
2024-02-07T23:53:30.485Z,87.25
2024-02-07T23:58:33.298Z,87.54
